Time;durP1;ratioP1;P1;durP2;ratioP2;P2;SDS_P1;SDS_P2;PMS_P1;PMS_P2;Temp;Humidity;BMP_temperature;BMP_pressure;BME280_temperature;BME280_humidity;BME280_pressure;Samples;Min_cycle;Max_cycle;Signal;HPM_P1;HPM_P2
2022/12/28 00:01:06;;;;;;;20.38;9.88;;;;;;;2.44;91.33;98920.78;4157372;28;20257;-91
2022/12/28 00:03:10;;;;;;;22.27;8.90;;;;;;;2.39;91.98;98904.59;4171477;28;20300;-91
2022/12/28 00:05:13;;;;;;;17.92;8.50;;;;;;;2.38;92.14;98906.31;4157312;28;20313;-91
2022/12/28 00:07:16;;;;;;;23.60;8.57;;;;;;;2.40;92.00;98899.41;4154344;28;20227;-91
2022/12/28 00:09:19;;;;;;;20.45;9.57;;;;;;;2.40;91.89;98896.81;4179615;28;20325;-90
2022/12/28 00:11:24;;;;;;;17.63;9.05;;;;;;;2.43;91.85;98901.91;4137227;28;20195;-91
2022/12/28 00:13:51;;;;;;;11.93;8.10;;;;;;;2.43;92.27;98894.19;4185820;28;20657;-91
2022/12/28 00:15:55;;;;;;;12.48;8.10;;;;;;;2.44;92.02;98892.47;4133469;28;20743;-90
2022/12/28 00:17:58;;;;;;;12.02;8.23;;;;;;;2.42;91.85;98891.66;4143076;28;20747;-91
2022/12/28 00:20:01;;;;;;;11.65;7.63;;;;;;;2.38;91.52;98880.59;4137475;28;20704;-91
2022/12/28 00:22:04;;;;;;;10.85;7.55;;;;;;;2.43;92.13;98881.31;4155073;28;20221;-91
2022/12/28 00:24:08;;;;;;;10.65;7.63;;;;;;;2.44;91.55;98880.44;4153705;28;20607;-91
2022/12/28 00:26:12;;;;;;;9.57;7.38;;;;;;;2.45;91.77;98874.44;4168464;28;20253;-91
2022/12/28 00:28:16;;;;;;;10.20;7.00;;;;;;;2.45;91.37;98869.28;4155709;28;20213;-91
2022/12/28 00:30:20;;;;;;;11.48;7.40;;;;;;;2.43;91.59;98867.63;4170316;28;20708;-91
2022/12/28 00:32:23;;;;;;;8.50;7.20;;;;;;;2.43;91.27;98865.03;4156417;28;20204;-91
2022/12/28 00:34:28;;;;;;;10.60;6.70;;;;;;;2.40;91.45;98865.94;4157227;28;20953;-91
2022/12/28 00:36:32;;;;;;;10.38;7.47;;;;;;;2.42;91.51;98871.94;4171710;28;20559;-91
2022/12/28 00:38:55;;;;;;;10.18;7.40;;;;;;;2.41;91.90;98867.66;4155311;28;20303;-91
2022/12/28 00:40:58;;;;;;;10.02;6.70;;;;;;;2.49;91.77;98868.31;4168107;28;20218;-91
2022/12/28 00:43:01;;;;;;;10.77;7.00;;;;;;;2.47;92.19;98859.78;4137951;28;20219;-91
2022/12/28 00:45:06;;;;;;;10.77;7.03;;;;;;;2.45;91.58;98861.56;4154585;28;20663;-91
2022/12/28 00:47:11;;;;;;;9.32;6.68;;;;;;;2.42;92.51;98871.06;4155698;28;20216;-91
2022/12/28 00:49:14;;;;;;;8.10;6.55;;;;;;;2.45;92.42;98859.00;4182014;28;20231;-91
2022/12/28 00:51:19;;;;;;;9.50;7.10;;;;;;;2.46;92.29;98862.41;4153137;28;20282;-91
2022/12/28 00:53:22;;;;;;;7.65;6.18;;;;;;;2.50;92.20;98858.88;4139411;28;20298;-91
2022/12/28 00:55:25;;;;;;;9.95;6.85;;;;;;;2.51;92.01;98866.56;4152334;28;20203;-91
2022/12/28 00:57:28;;;;;;;8.90;7.05;;;;;;;2.52;92.83;98855.38;4154095;28;20211;-91
2022/12/28 00:59:32;;;;;;;7.95;6.22;;;;;;;2.56;92.29;98864.72;4183487;28;20214;-91
2022/12/28 01:01:35;;;;;;;8.57;6.78;;;;;;;2.57;92.43;98858.69;4186943;28;20205;-91
2022/12/28 01:03:48;;;;;;;9.35;7.03;;;;;;;2.56;92.44;98854.41;4138175;28;20738;-91
2022/12/28 01:05:52;;;;;;;8.95;6.57;;;;;;;2.57;92.31;98855.25;4187830;28;20748;-91
2022/12/28 01:07:55;;;;;;;7.90;5.90;;;;;;;2.60;91.75;98850.91;4134935;28;20251;-92
2022/12/28 01:09:58;;;;;;;8.27;6.35;;;;;;;2.56;91.84;98857.00;4152716;28;20223;-91
2022/12/28 01:12:02;;;;;;;8.75;6.30;;;;;;;2.55;91.92;98854.44;4142162;28;20230;-91
2022/12/28 01:14:05;;;;;;;9.98;6.55;;;;;;;2.59;92.15;98845.78;4167942;28;20281;-91
2022/12/28 01:16:12;;;;;;;10.00;6.68;;;;;;;2.57;91.72;98832.94;4138554;28;20247;-91
2022/12/28 01:18:16;;;;;;;8.70;6.90;;;;;;;2.59;92.12;98838.91;4154798;28;20314;-91
2022/12/28 01:20:21;;;;;;;10.55;7.70;;;;;;;2.60;91.82;98829.44;4141728;28;20212;-91
2022/12/28 01:22:24;;;;;;;9.10;6.97;;;;;;;2.62;92.11;98833.66;4174311;28;20315;-91
2022/12/28 01:24:27;;;;;;;7.45;5.55;;;;;;;2.61;91.72;98834.53;4151937;28;20211;-91
2022/12/28 01:26:30;;;;;;;9.60;6.47;;;;;;;2.60;91.13;98821.72;4154247;28;20215;-91
2022/12/28 01:28:33;;;;;;;7.60;6.47;;;;;;;2.61;91.59;98820.84;4154103;28;20744;-91
2022/12/28 01:30:37;;;;;;;12.35;7.50;;;;;;;2.62;91.50;98818.22;4154172;28;20206;-91
2022/12/28 01:32:41;;;;;;;12.23;7.00;;;;;;;2.65;91.55;98815.56;4170063;28;20287;-91
2022/12/28 01:34:44;;;;;;;12.18;10.10;;;;;;;2.67;91.50;98815.53;4157821;28;20264;-90
2022/12/28 01:36:48;;;;;;;8.45;7.32;;;;;;;2.64;91.41;98811.31;4168974;28;20242;-91
2022/12/28 01:38:59;;;;;;;9.50;7.20;;;;;;;2.61;91.10;98810.53;4154293;28;20614;-91
2022/12/28 01:41:02;;;;;;;9.18;7.15;;;;;;;2.55;90.43;98808.97;4160422;28;20233;-91
2022/12/28 01:43:09;;;;;;;9.05;7.47;;;;;;;2.54;90.69;98811.56;4168754;28;20225;-91
2022/12/28 01:45:16;;;;;;;7.80;6.90;;;;;;;2.53;90.95;98799.59;4136516;28;20211;-91
2022/12/28 01:47:23;;;;;;;9.00;6.90;;;;;;;2.54;91.12;98789.28;4168744;28;20214;-91
2022/12/28 01:49:29;;;;;;;9.73;7.15;;;;;;;2.58;91.40;98795.19;4153210;28;20201;-91
2022/12/28 01:51:37;;;;;;;7.78;6.50;;;;;;;2.58;91.38;98788.28;4139167;28;20337;-91
2022/12/28 01:53:48;;;;;;;9.63;7.10;;;;;;;2.62;92.38;98796.81;4170310;28;20202;-91
2022/12/28 01:55:51;;;;;;;8.25;6.70;;;;;;;2.62;91.82;98787.34;4164286;28;20212;-91
2022/12/28 01:57:57;;;;;;;9.75;6.70;;;;;;;2.60;92.07;98781.41;4151649;28;20231;-91
2022/12/28 02:00:05;;;;;;;8.02;6.88;;;;;;;2.64;91.21;98780.41;4153246;28;20654;-91
2022/12/28 02:02:15;;;;;;;9.88;6.93;;;;;;;2.61;91.75;98772.78;4146778;28;20214;-91
2022/12/28 02:04:18;;;;;;;8.00;6.18;;;;;;;2.66;91.47;98780.38;4169185;28;20202;-91
2022/12/28 02:06:21;;;;;;;8.80;6.82;;;;;;;2.66;91.38;98773.50;4155750;28;20310;-91
2022/12/28 02:08:29;;;;;;;9.52;6.78;;;;;;;2.66;91.77;98768.38;4169548;28;20314;-91
2022/12/28 02:10:49;;;;;;;9.90;7.20;;;;;;;2.67;91.95;98764.06;4136894;28;20214;-91
2022/12/28 02:12:54;;;;;;;9.55;7.53;;;;;;;2.68;91.82;98770.91;4140596;28;20219;-91
2022/12/28 02:14:57;;;;;;;8.27;6.60;;;;;;;2.71;92.10;98761.34;4140335;28;20254;-91
2022/12/28 02:17:00;;;;;;;10.30;6.95;;;;;;;2.75;92.33;98756.97;4141580;28;20605;-91
2022/12/28 02:19:05;;;;;;;11.40;7.38;;;;;;;2.77;92.22;98744.88;4165309;28;20206;-91
2022/12/28 02:21:22;;;;;;;9.82;7.15;;;;;;;2.79;92.22;98743.97;4168869;28;20199;-90
2022/12/28 02:23:54;;;;;;;8.40;6.97;;;;;;;2.84;92.04;98744.66;4149889;28;20336;-91
2022/12/28 02:26:34;;;;;;;9.93;7.45;;;;;;;2.86;92.78;98742.91;4144764;28;20653;-91
2022/12/28 02:29:11;;;;;;;8.32;6.45;;;;;;;2.88;93.09;98738.56;4149487;28;20199;-91
2022/12/28 02:31:18;;;;;;;9.82;6.15;;;;;;;2.89;92.98;98750.56;4140658;28;20211;-90
2022/12/28 02:33:25;;;;;;;8.63;6.35;;;;;;;2.89;92.81;98737.69;4173965;28;20255;-91
2022/12/28 02:35:39;;;;;;;9.63;6.90;;;;;;;2.91;92.96;98743.63;4157083;28;20406;-91
2022/12/28 02:37:46;;;;;;;8.85;6.47;;;;;;;2.94;92.75;98743.53;4172195;28;20577;-91
2022/12/28 02:39:53;;;;;;;8.73;6.50;;;;;;;2.96;93.56;98734.03;4158342;28;20210;-91
2022/12/28 02:41:56;;;;;;;9.20;6.97;;;;;;;2.95;93.16;98727.22;4174775;28;20322;-91
2022/12/28 02:44:00;;;;;;;8.90;6.80;;;;;;;2.97;92.88;98722.84;4141798;28;20234;-91
2022/12/28 02:51:49;;;;;;;10.23;6.43;;;;;;;2.98;92.80;98709.09;4142568;28;20770;-91
2022/12/28 02:56:05;;;;;;;9.05;6.22;;;;;;;2.97;92.88;98703.09;4158600;28;20219;-91
2022/12/28 02:56:42;;;;;;;9.85;6.70;;;;;;;3.00;93.36;98703.00;4186042;28;20193;-91
2022/12/28 02:59:18;;;;;;;7.45;6.13;;;;;;;2.99;92.52;98705.63;4174019;28;20202;-91
2022/12/28 03:01:31;;;;;;;9.68;6.85;;;;;;;2.99;92.78;98690.16;4158145;28;20206;-91
2022/12/28 03:03:39;;;;;;;6.80;5.88;;;;;;;2.99;92.46;98685.88;4171087;28;20206;-92
2022/12/28 03:08:30;;;;;;;9.60;6.35;;;;;;;2.99;93.26;98685.88;4156756;28;20227;-92
2022/12/28 03:10:38;;;;;;;8.95;6.50;;;;;;;3.00;93.22;98681.56;4168563;28;20227;-92
2022/12/28 03:12:46;;;;;;;8.80;6.70;;;;;;;3.04;93.11;98683.16;4173553;28;20197;-92
2022/12/28 03:14:53;;;;;;;7.25;6.50;;;;;;;3.08;93.48;98689.88;4168642;28;20260;-91
2022/12/28 03:31:21;;;;;;;7.75;6.57;;;;;;;3.26;94.25;98664.41;4159685;28;20207;-92
2022/12/28 03:33:29;;;;;;;7.78;6.28;;;;;;;3.27;94.66;98666.94;4162747;28;20698;-92
2022/12/28 03:35:38;;;;;;;8.80;6.45;;;;;;;3.32;93.77;98669.38;4163000;28;20199;-92
2022/12/28 03:37:47;;;;;;;13.70;7.32;;;;;;;3.31;94.88;98673.69;4186212;28;20202;-91
2022/12/28 03:39:55;;;;;;;8.45;6.35;;;;;;;3.32;93.68;98659.06;4157301;28;20296;-92
2022/12/28 03:44:24;;;;;;;7.40;6.05;;;;;;;3.39;94.69;98666.56;4170481;28;20246;-92
2022/12/28 03:46:30;;;;;;;10.55;6.40;;;;;;;3.38;93.83;98659.75;4170875;28;20254;-91
2022/12/28 03:48:36;;;;;;;8.00;5.97;;;;;;;3.40;94.69;98651.97;4186987;28;20241;-91
2022/12/28 03:50:42;;;;;;;7.95;5.95;;;;;;;3.45;94.74;98655.25;4183862;28;20649;-92
2022/12/28 03:52:47;;;;;;;9.65;6.50;;;;;;;3.47;94.61;98644.00;4170000;28;20281;-91
2022/12/28 03:54:50;;;;;;;7.13;5.72;;;;;;;3.50;94.70;98638.75;4172975;28;20210;-91
2022/12/28 03:56:54;;;;;;;7.88;5.88;;;;;;;3.50;93.78;98640.47;4156013;28;20586;-92
2022/12/28 03:59:02;;;;;;;7.90;6.30;;;;;;;3.48;94.69;98640.50;4168756;28;20210;-91
2022/12/28 04:01:40;;;;;;;9.73;6.00;;;;;;;3.48;93.67;98635.34;4173324;28;20582;-92
2022/12/28 04:03:46;;;;;;;8.10;6.30;;;;;;;3.49;94.96;98637.06;4191450;28;20239;-91
2022/12/28 04:05:49;;;;;;;6.95;5.97;;;;;;;3.52;94.21;98630.94;4158525;28;20219;-92
2022/12/28 04:07:54;;;;;;;8.75;5.85;;;;;;;3.53;93.93;98636.03;4141160;28;20699;-91
2022/12/28 04:09:58;;;;;;;7.68;5.75;;;;;;;3.55;93.92;98634.28;4139001;28;20654;-92
2022/12/28 04:12:01;;;;;;;8.90;6.22;;;;;;;3.56;94.82;98627.38;4175570;28;20296;-91
2022/12/28 04:14:24;;;;;;;7.75;6.07;;;;;;;3.58;94.20;98623.00;4157864;28;20253;-91
2022/12/28 04:16:27;;;;;;;9.27;6.38;;;;;;;3.59;93.54;98635.00;4143731;28;21008;-91
2022/12/28 04:18:48;;;;;;;7.30;5.80;;;;;;;3.57;94.49;98635.06;4140151;28;20209;-92
2022/12/28 04:20:51;;;;;;;6.85;6.07;;;;;;;3.59;95.09;98632.44;4169407;28;21266;-91
2022/12/28 04:22:56;;;;;;;7.25;5.88;;;;;;;3.58;94.96;98628.16;4139650;28;20239;-91
2022/12/28 04:24:59;;;;;;;10.23;5.38;;;;;;;3.56;94.40;98628.22;4142042;28;20821;-91
2022/12/28 04:27:02;;;;;;;7.75;5.65;;;;;;;3.57;93.49;98624.75;4169630;28;20297;-91
2022/12/28 04:29:05;;;;;;;8.02;5.53;;;;;;;3.61;94.30;98631.50;4138986;28;20242;-92
2022/12/28 04:31:31;;;;;;;7.93;5.45;;;;;;;3.61;94.10;98630.66;4151132;28;20260;-92
2022/12/28 04:33:50;;;;;;;6.93;5.45;;;;;;;3.64;95.02;98623.66;4188034;28;20189;-91
2022/12/28 04:35:53;;;;;;;7.80;5.80;;;;;;;3.65;94.48;98614.19;4159204;28;20202;-92
2022/12/28 04:37:58;;;;;;;10.27;5.63;;;;;;;3.69;93.82;98603.72;4174738;28;20282;-92
2022/12/28 04:40:01;;;;;;;8.38;5.95;;;;;;;3.69;94.07;98603.72;4136175;28;20207;-92
2022/12/28 04:42:04;;;;;;;11.20;6.25;;;;;;;3.71;94.05;98601.94;4157487;28;20922;-92
2022/12/28 04:44:07;;;;;;;6.53;5.18;;;;;;;3.70;94.62;98595.09;4174118;28;20206;-91
2022/12/28 04:46:12;;;;;;;8.38;5.65;;;;;;;3.76;93.05;98605.22;4171794;28;20283;-91
2022/12/28 04:48:15;;;;;;;8.48;5.50;;;;;;;3.75;93.79;98606.09;4157767;28;20207;-92
2022/12/28 04:50:24;;;;;;;6.95;5.88;;;;;;;3.75;93.83;98598.38;4173845;28;20666;-91
2022/12/28 04:52:27;;;;;;;7.30;5.90;;;;;;;3.77;93.72;98596.56;4166509;28;20210;-92
2022/12/28 04:54:31;;;;;;;10.63;5.82;;;;;;;3.81;94.25;98600.75;4185368;28;20233;-91
2022/12/28 04:56:34;;;;;;;8.20;5.50;;;;;;;3.82;93.60;98599.84;4135736;28;20212;-91
2022/12/28 04:59:05;;;;;;;8.23;6.15;;;;;;;3.83;93.47;98601.53;4169049;28;20226;-91
2022/12/28 05:01:10;;;;;;;8.55;6.25;;;;;;;3.85;94.30;98595.44;4163679;28;20218;-92
2022/12/28 05:03:13;;;;;;;9.30;5.80;;;;;;;3.83;94.29;98597.22;4153669;28;20222;-91
2022/12/28 05:05:17;;;;;;;8.60;5.60;;;;;;;3.85;93.96;98589.44;4158573;28;20211;-91
2022/12/28 05:07:20;;;;;;;8.07;6.55;;;;;;;3.86;93.72;98593.69;4155461;28;20305;-91
2022/12/28 05:09:48;;;;;;;7.88;6.40;;;;;;;3.81;94.05;98580.09;4158395;28;20245;-91
2022/12/28 05:11:51;;;;;;;7.07;6.20;;;;;;;3.82;94.31;98589.53;4169875;28;20231;-91
2022/12/28 05:13:55;;;;;;;9.57;6.30;;;;;;;3.80;94.19;98593.88;4141531;28;20239;-92
2022/12/28 05:16:01;;;;;;;8.10;6.57;;;;;;;3.78;94.97;98595.69;4138301;28;20303;-91
2022/12/28 05:18:04;;;;;;;7.70;5.50;;;;;;;3.81;94.91;98598.16;4154455;28;20856;-91
2022/12/28 05:20:08;;;;;;;11.05;7.07;;;;;;;3.82;94.88;98589.53;4172601;28;20672;-91
2022/12/28 05:22:11;;;;;;;6.95;5.43;;;;;;;3.81;94.61;98598.16;4143908;28;20203;-90
2022/12/28 05:24:15;;;;;;;7.38;5.35;;;;;;;3.80;94.16;98594.75;4181750;28;20696;-91
2022/12/28 05:26:37;;;;;;;7.18;4.80;;;;;;;3.83;93.14;98592.06;4172940;28;20321;-91
2022/12/28 05:28:41;;;;;;;6.13;5.45;;;;;;;3.83;93.79;98591.22;4142824;28;20836;-91
2022/12/28 05:30:44;;;;;;;7.80;6.00;;;;;;;3.83;94.26;98591.22;4152957;28;20206;-91
2022/12/28 05:32:47;;;;;;;6.32;5.68;;;;;;;3.81;94.83;98593.84;4168046;28;20201;-91
2022/12/28 05:35:02;;;;;;;7.55;6.45;;;;;;;3.82;93.67;98600.69;4185817;28;20201;-91
2022/12/28 05:37:05;;;;;;;9.65;5.90;;;;;;;3.86;94.44;98597.13;4135674;28;20293;-91
2022/12/28 05:39:08;;;;;;;6.55;5.47;;;;;;;3.88;93.58;98599.66;4143637;28;20232;-91
2022/12/28 05:41:13;;;;;;;7.13;5.10;;;;;;;3.89;93.90;98599.59;4176453;28;20623;-91
2022/12/28 05:43:17;;;;;;;6.80;4.78;;;;;;;3.90;94.16;98600.44;4157956;28;20210;-91
2022/12/28 05:45:20;;;;;;;7.95;5.50;;;;;;;3.93;93.64;98597.75;4141010;28;20409;-90
2022/12/28 05:47:23;;;;;;;6.93;5.05;;;;;;;3.94;93.67;98602.00;4140399;28;20663;-91
2022/12/28 05:49:26;;;;;;;8.68;5.72;;;;;;;3.94;93.34;98587.38;4155426;28;20206;-91
2022/12/28 05:51:31;;;;;;;6.90;5.97;;;;;;;3.95;94.00;98591.63;4187096;28;20206;-91
2022/12/28 05:55:53;;;;;;;7.63;5.90;;;;;;;3.96;94.18;98582.16;4153769;28;20210;-91
2022/12/28 05:57:56;;;;;;;10.98;6.32;;;;;;;3.94;94.43;98577.06;4150629;28;21174;-91
2022/12/28 06:00:00;;;;;;;7.03;6.07;;;;;;;3.95;94.12;98580.47;4171149;28;20713;-91
2022/12/28 06:02:13;;;;;;;8.13;6.47;;;;;;;3.94;94.15;98578.78;4158356;28;20203;-91
2022/12/28 06:04:21;;;;;;;8.60;6.25;;;;;;;3.96;94.35;98582.16;4158427;28;20356;-91
2022/12/28 06:06:24;;;;;;;9.77;6.65;;;;;;;4.00;94.16;98584.59;4188840;28;20719;-91
2022/12/28 06:08:29;;;;;;;10.65;6.72;;;;;;;4.01;94.54;98586.25;4176016;28;20625;-91
2022/12/28 06:10:32;;;;;;;6.63;5.65;;;;;;;4.02;94.62;98584.53;4141457;28;20215;-91
2022/12/28 06:12:35;;;;;;;9.13;6.25;;;;;;;4.03;94.09;98581.91;4172084;28;20209;-90
2022/12/28 06:14:38;;;;;;;8.73;6.57;;;;;;;4.03;94.58;98578.47;4137237;28;20316;-91
2022/12/28 06:16:42;;;;;;;8.65;6.45;;;;;;;4.06;94.57;98576.63;4151748;28;20714;-91
2022/12/28 06:19:08;;;;;;;7.95;7.03;;;;;;;4.13;94.48;98579.84;4141031;28;20266;-91
2022/12/28 06:21:13;;;;;;;10.45;8.95;;;;;;;4.12;93.67;98567.81;4159833;28;20207;-91
2022/12/28 06:23:16;;;;;;;13.80;8.60;;;;;;;4.15;94.57;98567.72;4161357;28;20227;-91
2022/12/28 06:25:19;;;;;;;10.90;8.32;;;;;;;4.14;93.96;98566.88;4155332;28;20232;-91
2022/12/28 06:27:22;;;;;;;7.93;7.13;;;;;;;4.16;93.91;98572.00;4155542;28;20698;-91
2022/12/28 06:29:25;;;;;;;8.90;7.80;;;;;;;4.20;93.90;98558.91;4170685;28;20202;-91
2022/12/28 06:31:30;;;;;;;8.23;7.38;;;;;;;4.27;93.59;98552.66;4152240;28;20644;-91
2022/12/28 06:33:34;;;;;;;9.98;6.63;;;;;;;4.30;93.61;98561.13;4160783;28;20293;-91
2022/12/28 06:35:40;;;;;;;4.82;3.35;;;;;;;4.37;94.53;98553.97;4186578;28;20357;-91
2022/12/28 06:37:43;;;;;;;4.05;3.00;;;;;;;4.44;96.04;98560.63;4187911;28;20218;-90
2022/12/28 06:39:46;;;;;;;3.40;2.33;;;;;;;4.50;95.79;98550.91;4152274;28;20741;-89
2022/12/28 06:41:49;;;;;;;5.13;2.20;;;;;;;4.65;96.84;98555.50;4156602;28;20202;-89
2022/12/28 06:44:06;;;;;;;3.45;2.88;;;;;;;4.79;97.01;98553.22;4158551;28;20246;-91
2022/12/28 06:46:10;;;;;;;3.38;1.73;;;;;;;4.92;97.62;98560.44;4148441;28;20618;-92
2022/12/28 06:48:13;;;;;;;6.78;2.25;;;;;;;5.07;97.12;98548.69;4157541;28;20262;-93
2022/12/28 06:50:18;;;;;;;3.65;1.40;;;;;;;5.19;96.83;98555.03;4154005;28;20338;-95
2022/12/28 06:52:21;;;;;;;2.58;1.30;;;;;;;5.33;97.05;98560.47;4157601;28;20218;-92
2022/12/28 06:54:24;;;;;;;1.65;1.20;;;;;;;5.47;96.66;98554.75;4155555;28;20231;-92
2022/12/28 06:56:29;;;;;;;5.95;1.85;;;;;;;5.60;96.96;98554.19;4158525;28;20695;-91
2022/12/28 06:58:33;;;;;;;2.45;1.30;;;;;;;5.67;95.71;98555.63;4156259;28;20199;-92
2022/12/28 07:00:36;;;;;;;1.40;1.10;;;;;;;5.80;95.24;98556.81;4159708;28;20584;-95
2022/12/28 07:02:40;;;;;;;1.55;1.23;;;;;;;5.91;94.81;98559.78;4173172;28;20210;-90
2022/12/28 07:04:43;;;;;;;3.17;1.30;;;;;;;5.98;93.35;98549.09;4158532;28;20370;-89
2022/12/28 07:06:48;;;;;;;3.60;1.23;;;;;;;6.09;93.67;98549.50;4172501;28;20227;-90
2022/12/28 07:08:51;;;;;;;1.58;1.00;;;;;;;6.15;92.96;98549.25;4161719;28;20229;-90
2022/12/28 07:10:54;;;;;;;1.70;1.15;;;;;;;6.26;92.23;98550.44;4157901;28;20216;-91
2022/12/28 07:12:58;;;;;;;4.68;1.50;;;;;;;6.34;92.84;98552.69;4143656;28;20211;-90
2022/12/28 07:15:01;;;;;;;2.50;1.00;;;;;;;6.42;91.89;98555.78;4160446;28;20203;-91
2022/12/28 07:17:04;;;;;;;1.73;0.80;;;;;;;6.46;91.92;98552.97;4157440;28;20200;-90
2022/12/28 07:19:07;;;;;;;4.25;1.00;;;;;;;6.50;91.78;98549.34;4158620;28;20495;-91
2022/12/28 07:21:13;;;;;;;2.20;1.17;;;;;;;6.59;91.35;98564.47;4187019;28;20206;-90
2022/12/28 07:23:17;;;;;;;2.65;1.25;;;;;;;6.63;91.23;98558.22;4144296;28;20240;-91
2022/12/28 07:25:21;;;;;;;1.15;0.70;;;;;;;6.71;91.29;98553.56;4160310;28;20655;-92
2022/12/28 07:27:24;;;;;;;2.13;1.08;;;;;;;6.75;90.36;98555.09;4142911;28;20360;-91
2022/12/28 07:29:27;;;;;;;1.95;1.20;;;;;;;6.77;89.97;98542.91;4159375;28;20211;-91
2022/12/28 07:31:32;;;;;;;2.10;1.02;;;;;;;6.86;90.69;98547.69;4142680;28;20204;-91
2022/12/28 07:33:50;;;;;;;2.30;0.95;;;;;;;6.94;89.76;98548.16;4141274;28;20203;-91
2022/12/28 07:35:53;;;;;;;2.60;1.10;;;;;;;6.99;88.71;98538.41;4143502;28;20910;-90
2022/12/28 07:37:56;;;;;;;1.95;1.20;;;;;;;7.08;88.77;98549.16;4177325;28;20687;-91
2022/12/28 07:40:01;;;;;;;1.88;1.10;;;;;;;7.10;88.40;98537.00;4159271;28;20589;-91
2022/12/28 07:42:07;;;;;;;3.55;1.27;;;;;;;7.14;88.60;98544.56;4159230;28;20207;-90
2022/12/28 07:44:10;;;;;;;2.20;1.08;;;;;;;7.19;88.43;98546.94;4160385;28;20249;-90
2022/12/28 07:46:15;;;;;;;2.50;1.88;;;;;;;7.21;88.27;98540.75;4162831;28;20211;-91
2022/12/28 07:48:18;;;;;;;1.92;1.17;;;;;;;7.24;87.81;98539.75;4156979;28;20222;-90
2022/12/28 07:50:22;;;;;;;4.78;1.27;;;;;;;7.30;87.02;98540.28;4175288;28;20205;-91
2022/12/28 07:52:24;;;;;;;1.90;0.95;;;;;;;7.33;86.87;98534.97;4157704;28;20203;-90
2022/12/28 07:54:28;;;;;;;2.65;1.35;;;;;;;7.39;87.19;98531.25;4155264;28;20313;-93
2022/12/28 07:56:33;;;;;;;2.10;1.10;;;;;;;7.44;85.77;98535.28;4160786;28;20209;-90
2022/12/28 07:58:49;;;;;;;2.33;1.15;;;;;;;7.50;86.18;98542.75;4155035;28;20309;-90
2022/12/28 08:00:51;;;;;;;1.60;1.02;;;;;;;7.54;86.47;98533.91;4139452;28;20601;-90
2022/12/28 08:02:55;;;;;;;2.00;1.00;;;;;;;7.55;86.30;98535.59;4174156;28;20658;-90
2022/12/28 08:04:58;;;;;;;3.95;1.20;;;;;;;7.58;87.21;98532.88;4158707;28;20223;-90
2022/12/28 08:07:02;;;;;;;3.05;1.10;;;;;;;7.62;85.11;98532.63;4189160;28;20227;-90
2022/12/28 08:09:06;;;;;;;3.88;1.20;;;;;;;7.68;85.89;98534.06;4155631;28;20272;-89
2022/12/28 08:11:11;;;;;;;2.92;0.98;;;;;;;7.72;85.85;98533.84;4186264;28;20271;-90
2022/12/28 08:13:16;;;;;;;2.67;1.20;;;;;;;7.79;86.07;98529.19;4155355;28;20234;-90
2022/12/28 08:15:19;;;;;;;2.60;1.00;;;;;;;7.80;85.17;98525.66;4156081;28;20240;-90
2022/12/28 08:17:22;;;;;;;4.93;1.75;;;;;;;7.86;86.33;98526.19;4156707;28;20259;-90
2022/12/28 08:19:43;;;;;;;4.45;1.73;;;;;;;7.91;85.04;98524.22;4170184;28;20206;-90
2022/12/28 08:21:46;;;;;;;4.55;1.20;;;;;;;7.94;84.91;98518.00;4187574;28;20217;-89
2022/12/28 08:24:01;;;;;;;4.90;1.38;;;;;;;7.99;84.49;98512.50;4173015;28;20208;-89
2022/12/28 08:26:06;;;;;;;1.80;1.02;;;;;;;8.07;83.92;98510.38;4144035;28;20206;-90
2022/12/28 08:28:09;;;;;;;3.42;1.10;;;;;;;8.13;84.03;98509.22;4139148;28;20267;-90
2022/12/28 08:30:14;;;;;;;1.20;0.80;;;;;;;8.16;84.22;98512.53;4186958;28;20281;-90
2022/12/28 08:32:17;;;;;;;3.55;1.42;;;;;;;8.16;83.32;98504.75;4174612;28;20210;-90
2022/12/28 08:34:45;;;;;;;4.40;1.10;;;;;;;8.20;83.98;98502.81;4133454;28;20247;-90
2022/12/28 08:36:48;;;;;;;4.30;1.25;;;;;;;8.22;84.04;98496.59;4184673;28;20207;-92
2022/12/28 08:38:52;;;;;;;2.67;1.10;;;;;;;8.27;83.59;98496.34;4174781;28;20205;-91
2022/12/28 08:40:56;;;;;;;2.50;1.38;;;;;;;8.33;83.35;98506.44;4160999;28;20206;-92
2022/12/28 08:43:00;;;;;;;2.25;1.08;;;;;;;8.37;83.42;98508.78;4155693;28;20214;-91
2022/12/28 08:45:04;;;;;;;1.92;1.20;;;;;;;8.40;82.76;98502.59;4144112;28;20664;-91
2022/12/28 08:47:10;;;;;;;1.90;1.17;;;;;;;8.43;83.48;98505.03;4141395;28;20768;-94
2022/12/28 08:49:13;;;;;;;1.98;1.20;;;;;;;8.49;83.43;98508.13;4153156;28;20277;-89
2022/12/28 08:51:18;;;;;;;1.45;1.20;;;;;;;8.53;83.13;98509.66;4133630;28;20219;-90
2022/12/28 08:53:23;;;;;;;2.72;1.20;;;;;;;8.55;81.72;98502.59;4148012;28;20731;-91
2022/12/28 08:55:26;;;;;;;2.15;1.20;;;;;;;8.59;82.05;98507.56;4138447;28;20212;-91
2022/12/28 08:57:29;;;;;;;2.40;1.10;;;;;;;8.63;82.59;98508.22;4152073;28;20217;-91
2022/12/28 08:59:32;;;;;;;2.40;1.63;;;;;;;8.66;81.91;98505.47;4151819;28;20206;-91
2022/12/28 09:01:38;;;;;;;4.70;2.35;;;;;;;8.74;81.63;98513.72;4193859;28;20197;-91
2022/12/28 09:04:07;;;;;;;2.92;1.40;;;;;;;8.76;81.76;98506.66;4160132;28;20216;-93
2022/12/28 09:06:13;;;;;;;1.30;1.00;;;;;;;8.78;82.55;98500.47;4188704;28;20210;-91
2022/12/28 09:08:17;;;;;;;2.35;1.52;;;;;;;8.77;82.33;98503.13;4163412;28;20724;-91
2022/12/28 09:10:21;;;;;;;2.78;1.50;;;;;;;8.79;82.41;98501.28;4157304;28;20202;-93
2022/12/28 09:12:25;;;;;;;2.85;1.40;;;;;;;8.80;81.74;98500.38;4142391;28;20913;-90
2022/12/28 09:14:28;;;;;;;2.20;1.48;;;;;;;8.80;82.33;98506.41;4186219;28;20300;-93
2022/12/28 09:16:31;;;;;;;2.30;1.48;;;;;;;8.82;81.93;98501.13;4152939;28;20227;-94
2022/12/28 09:18:34;;;;;;;1.63;1.17;;;;;;;8.85;82.45;98504.38;4160981;28;20233;-94
2022/12/28 09:20:40;;;;;;;2.30;1.30;;;;;;;8.90;81.91;98504.13;4176578;28;20200;-95
2022/12/28 09:22:49;;;;;;;2.53;1.30;;;;;;;8.93;81.83;98503.03;4158755;28;20222;-95
2022/12/28 09:25:18;;;;;;;2.30;1.27;;;;;;;8.99;81.26;98507.91;4146790;28;20679;-95
2022/12/28 09:27:22;;;;;;;1.70;1.25;;;;;;;8.96;81.08;98505.47;4136628;28;20671;-96
2022/12/28 09:29:25;;;;;;;8.25;5.55;;;;;;;8.94;80.69;98507.34;4179655;28;20696;-95
2022/12/28 09:31:30;;;;;;;3.05;1.50;;;;;;;8.95;81.37;98505.56;4179644;28;20209;-95
2022/12/28 09:36:44;;;;;;;2.33;1.17;;;;;;;8.98;81.62;98508.81;4173472;28;20296;-91
2022/12/28 09:39:16;;;;;;;1.57;1.10;;;;;;;8.96;80.72;98502.06;4162365;28;20648;-93
2022/12/28 09:41:25;;;;;;;3.60;1.30;;;;;;;8.95;80.39;98496.00;4189520;28;20987;-95
2022/12/28 09:43:28;;;;;;;2.63;1.15;;;;;;;9.00;80.88;98491.34;4139505;28;21105;-94
2022/12/28 09:45:32;;;;;;;2.10;1.17;;;;;;;8.98;80.48;98482.81;4159335;28;20207;-95
2022/12/28 09:47:39;;;;;;;2.88;1.75;;;;;;;9.04;81.33;98484.25;4175815;28;20687;-94
2022/12/28 09:49:46;;;;;;;3.50;1.50;;;;;;;9.08;81.31;98484.00;4171109;28;20309;-92
2022/12/28 09:51:55;;;;;;;1.70;1.20;;;;;;;9.14;80.85;98472.38;4139490;28;20685;-94
2022/12/28 09:53:58;;;;;;;2.35;1.30;;;;;;;9.22;79.47;98478.00;4167279;28;20736;-92
2022/12/28 09:56:05;;;;;;;4.70;2.90;;;;;;;9.27;80.41;98474.19;4156610;28;20213;-92
2022/12/28 09:58:14;;;;;;;1.83;1.40;;;;;;;9.38;80.22;98477.03;4152274;28;20752;-91
2022/12/28 10:00:19;;;;;;;2.05;1.27;;;;;;;9.41;79.54;98476.84;4155996;28;20678;-94
2022/12/28 10:02:27;;;;;;;2.80;1.50;;;;;;;9.50;79.33;98478.91;4159989;28;20218;-94
2022/12/28 10:04:30;;;;;;;8.20;4.82;;;;;;;9.65;79.49;98475.44;4173085;28;21326;-92
2022/12/28 10:06:35;;;;;;;2.85;1.42;;;;;;;9.73;80.63;98470.63;4189869;28;20205;-90
2022/12/28 10:08:44;;;;;;;1.88;1.40;;;;;;;9.88;79.64;98473.16;4157916;28;20238;-89
2022/12/28 10:10:48;;;;;;;2.10;1.30;;;;;;;9.96;79.57;98466.56;4186548;28;20637;-89
2022/12/28 10:12:52;;;;;;;2.45;1.52;;;;;;;10.00;80.34;98475.91;4146883;28;21287;-90
2022/12/28 10:14:56;;;;;;;2.60;1.13;;;;;;;10.03;79.04;98473.09;4153638;28;20246;-89
2022/12/28 10:17:00;;;;;;;3.20;1.20;;;;;;;10.13;79.00;98476.00;4184547;28;20643;-89
2022/12/28 10:19:06;;;;;;;2.33;1.80;;;;;;;10.16;78.19;98465.38;4152434;28;21228;-90
2022/12/28 10:21:10;;;;;;;3.00;1.30;;;;;;;10.15;77.70;98461.94;4167775;28;20802;-90
2022/12/28 10:23:18;;;;;;;2.13;1.30;;;;;;;10.11;77.81;98455.22;4158780;28;20634;-89
2022/12/28 10:25:24;;;;;;;1.42;1.15;;;;;;;10.19;77.11;98454.78;4172627;28;20933;-90
2022/12/28 10:27:31;;;;;;;1.90;1.00;;;;;;;10.32;77.85;98459.97;4154227;28;20203;-91
2022/12/28 10:29:34;;;;;;;1.40;1.07;;;;;;;10.40;76.92;98454.28;4155482;28;20756;-92
2022/12/28 10:31:39;;;;;;;1.47;1.20;;;;;;;10.41;78.24;98455.97;4144128;28;21067;-91
2022/12/28 10:33:49;;;;;;;1.73;1.20;;;;;;;10.46;76.80;98443.47;4150965;28;21038;-90